Terminal Aerodrome Forecast
Issued by NWS

Home | Current Version | Previous Version | Text Only | Print | Product List | Glossary On
Versions: 1 2 3 4 5 6 7 8 9 10 11 12 13 14
000
FTUS41 KBTV 311120
TAFMSS
TAF
KMSS 311120Z 3112/0112 23008KT P6SM FEW070
     FM311400 24011G18KT P6SM SCT070
     FM010000 22005KT P6SM VCSH BKN060
     FM010500 22004KT 6SM -SHRA BR SCT035 OVC050=

USA.gov is the U.S. government's official web portal to all federal, state and local government web resources and services.